Time;durP1;ratioP1;P1;durP2;ratioP2;P2;SDS_P1;SDS_P2;PMS_P1;PMS_P2;Temp;Humidity;BMP_temperature;BMP_pressure;BME280_temperature;BME280_humidity;BME280_pressure;Samples;Min_cycle;Max_cycle;Signal;HPM_P1;HPM_P2
2022/10/13 16:20:51;;;;;;;18.17;8.90;;;;;;;;;;5131031;27;20602;-86
2022/10/13 16:23:18;;;;;;;20.87;10.57;;;;;;;;;;5130747;27;20454;-87
2022/10/13 16:25:46;;;;;;;13.83;9.80;;;;;;;;;;5129518;27;20450;-85
2022/10/13 16:28:14;;;;;;;17.70;10.23;;;;;;;;;;5130675;27;20443;-82
2022/10/13 16:30:42;;;;;;;15.50;10.70;;;14.40;99.90;;;;;;5144274;27;20940;-84
2022/10/13 16:33:09;;;;;;;21.90;11.43;;;;;;;;;;5147687;27;20523;-85
2022/10/13 16:35:36;;;;;;;19.80;10.97;;;;;;;;;;5132723;27;20447;-86
2022/10/13 16:38:05;;;;;;;13.70;10.50;;;;;;;;;;5125219;27;20435;-86
2022/10/13 16:40:32;;;;;;;19.17;11.17;;;;;;;;;;5126133;27;20494;-85
2022/10/13 16:42:59;;;;;;;17.33;12.20;;;;;;;;;;5127357;27;20953;-85
2022/10/13 16:45:26;;;;;;;38.57;26.07;;;;;;;;;;5122162;27;20876;-86
2022/10/13 16:47:54;;;;;;;12.90;10.50;;;;;;;;;;5122306;27;20450;-87
2022/10/13 16:50:21;;;;;;;18.17;11.00;;;;;;;;;;5130355;27;20443;-85
2022/10/13 16:52:48;;;;;;;11.60;9.97;;;;;;;;;;5129803;27;20449;-84
2022/10/13 16:55:16;;;;;;;13.63;10.00;;;;;;;;;;5128590;27;20914;-85
2022/10/13 16:57:44;;;;;;;16.40;10.40;;;;;;;;;;5139433;27;20450;-85
2022/10/13 17:00:12;;;;;;;14.47;10.57;;;14.00;99.90;;;;;;5147184;27;20535;-85
2022/10/13 17:02:40;;;;;;;13.13;9.10;;;;;;;;;;5120263;28;20471;-86
2022/10/13 17:05:07;;;;;;;16.77;10.63;;;;;;;;;;5109382;28;20456;-83
2022/10/13 17:07:34;;;;;;;16.83;9.73;;;;;;;;;;5109561;28;20454;-85
2022/10/13 17:10:01;;;;;;;48.10;43.27;;;;;;;;;;5117724;28;20458;-84
2022/10/13 17:12:30;;;;;;;20.13;17.23;;;;;;;;;;5130012;27;20450;-85
2022/10/13 17:14:57;;;;;;;14.80;10.10;;;;;;;;;;5123649;27;20436;-88
2022/10/13 17:17:24;;;;;;;24.43;10.27;;;;;;;;;;5109881;28;20444;-84
2022/10/13 17:19:51;;;;;;;16.37;11.63;;;;;;;;;;5119694;27;20581;-86
2022/10/13 17:22:19;;;;;;;16.13;13.50;;;;;;;;;;5116584;27;20440;-84
2022/10/13 17:24:47;;;;;;;18.40;13.17;;;;;;;;;;5115999;28;20467;-84
2022/10/13 17:27:15;;;;;;;24.77;14.70;;;;;;;;;;5114623;27;20440;-85
2022/10/13 17:29:43;;;;;;;27.90;16.90;;;;;;;;;;5108126;28;20452;-84
2022/10/13 17:32:10;;;;;;;17.20;11.40;;;;;;;;;;5095388;28;20547;-84
2022/10/13 17:34:38;;;;;;;18.00;11.80;;;;;;;;;;5095113;28;20441;-86
2022/10/13 17:37:05;;;;;;;15.80;11.53;;;;;;;;;;5095307;28;20453;-84
2022/10/13 17:39:32;;;;;;;16.40;11.00;;;;;;;;;;5094015;28;20987;-84
2022/10/13 17:41:59;;;;;;;15.00;10.93;;;;;;;;;;5095631;28;20642;-86
2022/10/13 17:44:26;;;;;;;13.13;10.30;;;;;;;;;;5095452;28;20453;-85
2022/10/13 17:46:55;;;;;;;14.90;11.80;;;13.60;99.90;;;;;;5102532;28;20448;-85
2022/10/13 17:49:22;;;;;;;14.53;12.10;;;;;;;;;;5096421;28;20449;-89
2022/10/13 17:51:51;;;;;;;14.73;11.30;;;13.50;99.90;;;;;;5095624;28;20448;-86
2022/10/13 17:54:19;;;;;;;21.13;10.43;;;13.50;99.90;;;;;;5093999;28;20521;-85
2022/10/13 17:56:47;;;;;;;16.27;11.47;;;;;;;;;;5095186;28;20448;-84
2022/10/13 17:59:14;;;;;;;15.30;11.70;;;;;;;;;;5095370;28;20480;-88
2022/10/13 18:01:42;;;;;;;15.07;11.67;;;;;;;;;;5095212;28;20986;-86
2022/10/13 18:04:13;;;;;;;17.30;12.37;;;13.40;99.90;;;;;;5095339;28;20950;-87
2022/10/13 18:06:42;;;;;;;16.20;12.60;;;13.40;99.90;;;;;;5095715;28;20448;-92
2022/10/13 18:09:10;;;;;;;22.00;12.57;;;13.40;99.90;;;;;;5094742;28;20540;-85
2022/10/13 18:11:38;;;;;;;20.27;13.40;;;;;;;;;;5095124;28;20455;-86
2022/10/13 18:14:05;;;;;;;42.80;32.70;;;13.40;99.90;;;;;;5095187;28;20444;-85
2022/10/13 18:16:33;;;;;;;51.40;36.20;;;;;;;;;;5092385;28;20449;-86
2022/10/13 18:19:00;;;;;;;37.23;27.43;;;;;;;;;;5094746;28;20475;-85
2022/10/13 18:21:28;;;;;;;50.97;35.70;;;;;;;;;;5094856;28;20809;-85
2022/10/13 18:23:57;;;;;;;33.53;25.60;;;13.40;99.90;;;;;;5093588;28;20958;-86
2022/10/13 18:26:24;;;;;;;22.30;15.10;;;;;;;;;;5094896;28;20444;-85
2022/10/13 18:28:52;;;;;;;23.70;17.10;;;;;;;;;;5094937;28;20440;-86
2022/10/13 18:31:20;;;;;;;18.97;13.90;;;13.40;99.90;;;;;;5094685;28;20456;-86
2022/10/13 18:33:47;;;;;;;17.97;12.23;;;;;;;;;;5094737;28;20456;-86
2022/10/13 18:36:18;;;;;;;21.97;12.80;;;13.40;99.90;;;;;;5094656;28;20943;-86
2022/10/13 18:38:47;;;;;;;21.40;11.83;;;;;;;;;;5089903;28;20529;-86
2022/10/13 18:41:15;;;;;;;16.67;11.67;;;;;;;;;;5094073;28;20489;-84
2022/10/13 18:43:42;;;;;;;14.67;12.10;;;;;;;;;;5093372;28;21117;-83
2022/10/13 18:46:09;;;;;;;13.87;10.60;;;;;;;;;;5094357;28;20449;-83
2022/10/13 18:48:36;;;;;;;17.00;12.30;;;;;;;;;;5094290;28;20452;-83
2022/10/13 18:51:04;;;;;;;19.13;12.93;;;;;;;;;;5094403;28;20453;-84
2022/10/13 18:53:34;;;;;;;14.03;12.37;;;;;;;;;;5093335;28;20851;-84
2022/10/13 18:56:04;;;;;;;24.73;12.80;;;13.30;99.90;;;;;;5094403;28;20519;-84
2022/10/13 18:58:31;;;;;;;19.07;11.43;;;;;;;;;;5094315;28;20444;-85
2022/10/13 19:01:02;;;;;;;16.97;13.20;;;;;;;;;;5094048;28;20503;-85
2022/10/13 19:03:29;;;;;;;23.00;15.17;;;;;;;;;;5094192;28;20440;-85
2022/10/13 19:05:56;;;;;;;18.40;12.80;;;13.20;99.90;;;;;;5094127;28;20464;-85
2022/10/13 19:08:23;;;;;;;17.80;11.33;;;;;;;;;;5094155;28;20459;-85
2022/10/13 19:10:51;;;;;;;14.47;12.53;;;;;;;;;;5092930;28;20472;-85
2022/10/13 19:13:19;;;;;;;23.63;12.37;;;13.00;99.90;;;;;;5093643;28;20975;-85
2022/10/13 19:15:46;;;;;;;15.50;12.10;;;;;;;;;;5093898;28;20455;-85
2022/10/13 19:18:13;;;;;;;17.30;12.20;;;;;;;;;;5094077;28;20448;-85
2022/10/13 19:20:40;;;;;;;13.60;11.53;;;;;;;;;;5093614;28;20519;-85
2022/10/13 19:23:07;;;;;;;22.73;14.47;;;;;;;;;;5093990;28;20448;-90
2022/10/13 19:25:35;;;;;;;16.60;12.00;;;;;;;;;;5092589;28;20444;-85
2022/10/13 19:28:02;;;;;;;20.13;12.13;;;;;;;;;;5093786;28;20440;-84
2022/10/13 19:30:30;;;;;;;15.40;12.00;;;12.80;99.90;;;;;;5093605;28;20445;-85
2022/10/13 19:32:57;;;;;;;15.43;11.37;;;;;;;;;;5093637;28;20449;-85
2022/10/13 19:35:25;;;;;;;14.53;12.00;;;;;;;;;;5093778;28;20807;-84
2022/10/13 19:37:53;;;;;;;21.57;14.13;;;;;;;;;;5093811;28;20447;-86
2022/10/13 19:40:20;;;;;;;20.50;15.13;;;;;;;;;;5092220;28;20488;-85
2022/10/13 19:42:47;;;;;;;13.33;10.70;;;;;;;;;;5093407;28;20444;-85
2022/10/13 19:45:14;;;;;;;15.50;10.03;;;;;;;;;;5093334;28;20891;-85
2022/10/13 19:47:42;;;;;;;16.70;12.47;;;;;;;;;;5093455;28;20450;-85
2022/10/13 19:50:10;;;;;;;17.13;10.63;;;;;;;;;;5093553;28;20743;-86
2022/10/13 19:52:37;;;;;;;13.37;9.27;;;;;;;;;;5093346;28;20527;-84
2022/10/13 19:55:05;;;;;;;17.87;11.40;;;;;;;;;;5092084;28;20456;-81
2022/10/13 19:57:32;;;;;;;14.70;10.53;;;;;;;;;;5093123;28;20958;-83
2022/10/13 19:59:59;;;;;;;16.83;10.80;;;;;;;;;;5093400;28;20979;-90
2022/10/13 20:02:26;;;;;;;14.53;10.43;;;;;;;;;;5093382;28;20452;-88
2022/10/13 20:04:54;;;;;;;12.77;9.27;;;12.70;99.90;;;;;;5093483;28;20453;-85
2022/10/13 20:07:21;;;;;;;11.87;10.00;;;;;;;;;;5093927;28;20448;-82
2022/10/13 20:09:48;;;;;;;11.00;9.47;;;;;;;;;;5092086;28;20444;-83
2022/10/13 20:12:15;;;;;;;15.83;9.37;;;;;;;;;;5093075;28;20448;-87
2022/10/13 20:14:42;;;;;;;11.90;9.27;;;;;;;;;;5093375;28;20444;-85
2022/10/13 20:17:10;;;;;;;22.23;8.50;;;;;;;;;;5093142;28;20445;-87
2022/10/13 20:19:37;;;;;;;15.80;9.70;;;;;;;;;;5092836;28;20499;-86
2022/10/13 20:22:05;;;;;;;13.80;8.23;;;;;;;;;;5093378;28;20437;-88
2022/10/13 20:24:32;;;;;;;11.23;9.23;;;;;;;;;;5091200;28;20440;-84
2022/10/13 20:26:59;;;;;;;9.50;7.53;;;;;;;;;;5092738;28;20449;-87
2022/10/13 20:29:26;;;;;;;11.97;7.97;;;;;;;;;;5093212;28;20448;-84
2022/10/13 20:31:53;;;;;;;11.67;8.23;;;;;;;;;;5093012;28;20440;-88
2022/10/13 20:34:21;;;;;;;11.43;8.10;;;;;;;;;;5093069;28;20448;-86
2022/10/13 20:36:50;;;;;;;14.07;8.20;;;;;;;;;;5093364;28;20445;-86
2022/10/13 20:39:18;;;;;;;8.67;7.73;;;;;;;;;;5092056;28;20475;-88
2022/10/13 20:41:45;;;;;;;13.70;8.07;;;;;;;;;;5092906;28;21017;-83
2022/10/13 20:44:12;;;;;;;10.77;6.53;;;;;;;;;;5093250;28;20445;-84
2022/10/13 20:46:39;;;;;;;12.03;8.20;;;;;;;;;;5093238;28;20448;-83
2022/10/13 20:49:07;;;;;;;13.37;7.87;;;;;;;;;;5093077;28;20449;-88
2022/10/13 20:51:34;;;;;;;13.73;7.63;;;;;;;;;;5092865;28;20448;-84
2022/10/13 20:54:01;;;;;;;8.67;7.63;;;;;;;;;;5091741;28;20445;-86
2022/10/13 20:56:29;;;;;;;10.40;7.80;;;;;;;;;;5092720;28;20452;-86
2022/10/13 20:58:56;;;;;;;12.43;7.70;;;;;;;;;;5092684;28;20932;-83
2022/10/13 21:01:23;;;;;;;9.80;7.73;;;;;;;;;;5092776;28;20858;-82
2022/10/13 21:03:53;;;;;;;15.53;8.33;;;;;;;;;;5092753;28;20444;-84
2022/10/13 21:06:21;;;;;;;10.93;8.07;;;;;;;;;;5094225;28;20444;-86
2022/10/13 21:08:48;;;;;;;9.20;7.57;;;;;;;;;;5095703;28;20448;-83
2022/10/13 21:11:16;;;;;;;13.33;8.50;;;12.20;99.90;;;;;;5095557;28;20441;-86
2022/10/13 21:13:45;;;;;;;11.40;7.40;;;12.20;99.90;;;;;;5096277;28;20459;-83
2022/10/13 21:16:15;;;;;;;11.73;7.93;;;12.10;99.90;;;;;;5096224;28;20445;-82
2022/10/13 21:18:44;;;;;;;10.53;7.87;;;12.10;99.90;;;;;;5095824;28;20523;-86
2022/10/13 21:21:11;;;;;;;10.30;7.80;;;;;;;;;;5096017;28;21019;-85
2022/10/13 21:23:39;;;;;;;11.70;7.47;;;;;;;;;;5094584;28;20445;-84
2022/10/13 21:26:08;;;;;;;11.00;7.80;;;12.00;99.90;;;;;;5092371;28;20521;-85
2022/10/13 21:28:36;;;;;;;9.70;8.00;;;;;;;;;;5093613;28;20448;-86
2022/10/13 21:31:06;;;;;;;10.00;7.80;;;12.00;99.90;;;;;;5095732;28;20459;-87
2022/10/13 21:33:34;;;;;;;9.67;8.30;;;;;;;;;;5095800;28;20453;-83
2022/10/13 21:36:01;;;;;;;10.50;8.20;;;;;;;;;;5095512;28;20456;-86
2022/10/13 21:38:29;;;;;;;16.23;7.87;;;;;;;;;;5094667;28;20497;-86
2022/10/13 21:40:56;;;;;;;11.80;8.47;;;;;;;;;;5095019;28;20492;-83
2022/10/13 21:43:23;;;;;;;12.60;8.10;;;;;;;;;;5095694;28;20540;-87
2022/10/13 21:45:50;;;;;;;10.70;8.23;;;;;;;;;;5095582;28;20448;-85
2022/10/13 21:48:18;;;;;;;8.53;7.23;;;;;;;;;;5095442;28;20440;-86
2022/10/13 21:50:46;;;;;;;12.13;8.40;;;;;;;;;;5092659;28;20493;-84
2022/10/13 21:53:14;;;;;;;12.40;7.73;;;;;;;;;;5094987;28;20811;-82
2022/10/13 21:55:41;;;;;;;10.00;7.67;;;;;;;;;;5094429;28;20449;-87
2022/10/13 21:58:08;;;;;;;18.00;7.20;;;;;;;;;;5092604;28;20448;-84
2022/10/13 22:00:36;;;;;;;15.13;7.50;;;;;;;;;;5092507;28;20530;-83
2022/10/13 22:03:03;;;;;;;11.73;7.67;;;;;;;;;;5095652;28;20464;-83
2022/10/13 22:05:31;;;;;;;9.57;7.47;;;12.30;99.90;;;;;;5095642;28;20970;-89
2022/10/13 22:07:58;;;;;;;9.63;7.60;;;;;;;;;;5095237;28;20452;-89
2022/10/13 22:10:25;;;;;;;8.57;7.43;;;;;;;;;;5094553;28;20441;-89
2022/10/13 22:12:52;;;;;;;8.73;7.03;;;;;;;;;;5095877;28;20441;-89
2022/10/13 22:15:19;;;;;;;10.13;7.90;;;;;;;;;;5095542;28;20452;-89
2022/10/13 22:17:46;;;;;;;10.60;7.07;;;;;;;;;;5095378;28;20966;-82
2022/10/13 22:20:13;;;;;;;10.50;7.67;;;;;;;;;;5095253;28;20476;-91
2022/10/13 22:22:42;;;;;;;7.83;6.07;;;;;;;;;;5095099;28;20453;-87
2022/10/13 22:25:09;;;;;;;7.70;6.90;;;;;;;;;;5094232;28;20464;-88
2022/10/13 22:27:36;;;;;;;11.53;6.63;;;;;;;;;;5095418;28;20453;-83
2022/10/13 22:30:03;;;;;;;9.00;7.70;;;;;;;;;;5095288;28;20459;-86
2022/10/13 22:32:30;;;;;;;11.73;6.90;;;;;;;;;;5095297;28;20449;-82
2022/10/13 22:34:57;;;;;;;7.87;6.90;;;;;;;;;;5095257;28;20445;-81
2022/10/13 22:37:24;;;;;;;10.47;7.43;;;;;;;;;;5093474;28;20445;-91
2022/10/13 22:39:53;;;;;;;10.03;7.10;;;12.30;99.90;;;;;;5093656;28;20448;-89
2022/10/13 22:42:21;;;;;;;11.70;6.53;;;;;;;;;;5094481;28;20851;-88
2022/10/13 22:44:48;;;;;;;11.03;6.43;;;;;;;;;;5094913;28;20449;-83
2022/10/13 22:47:15;;;;;;;9.73;6.90;;;;;;;;;;5095046;28;20494;-90
2022/10/13 22:49:42;;;;;;;7.73;6.93;;;;;;;;;;5095205;28;20449;-89
2022/10/13 22:52:09;;;;;;;8.73;6.07;;;;;;;;;;5094363;28;20474;-83
2022/10/13 22:54:36;;;;;;;14.83;6.43;;;;;;;;;;5093836;28;20444;-86
2022/10/13 22:57:04;;;;;;;7.73;6.10;;;12.30;99.90;;;;;;5094783;28;20448;-82
2022/10/13 22:59:31;;;;;;;8.33;6.30;;;;;;;;;;5094635;28;20441;-84
2022/10/13 23:01:58;;;;;;;5.60;5.10;;;;;;;;;;5094711;28;20491;-81
2022/10/13 23:04:25;;;;;;;8.23;6.30;;;;;;;;;;5094768;28;20449;-89
2022/10/13 23:06:53;;;;;;;7.80;7.00;;;;;;;;;;5094033;28;20455;-86
2022/10/13 23:09:20;;;;;;;7.77;6.00;;;;;;;;;;5093289;28;20453;-86
2022/10/13 23:11:47;;;;;;;7.50;6.77;;;;;;;;;;5094411;28;20447;-83
2022/10/13 23:14:15;;;;;;;11.03;8.10;;;;;;;;;;5094363;28;20433;-91
2022/10/13 23:16:43;;;;;;;11.67;7.50;;;;;;;;;;5094512;28;20924;-83
2022/10/13 23:19:10;;;;;;;10.37;8.73;;;;;;;;;;5094101;28;20847;-90
2022/10/13 23:21:37;;;;;;;10.23;7.20;;;;;;;;;;5093810;28;20499;-82
2022/10/13 23:24:06;;;;;;;9.23;7.97;;;12.30;99.90;;;;;;5092899;28;20508;-89
2022/10/13 23:26:34;;;;;;;8.43;7.60;;;12.30;99.90;;;;;;5093909;28;20445;-89
2022/10/13 23:29:01;;;;;;;12.00;8.60;;;;;;;;;;5093565;28;20445;-82
2022/10/13 23:31:29;;;;;;;8.60;7.40;;;12.30;99.90;;;;;;5094033;28;20452;-82
2022/10/13 23:33:57;;;;;;;8.60;7.40;;;;;;;;;;5094014;28;20453;-84
2022/10/13 23:36:27;;;;;;;8.03;6.73;;;12.20;99.90;;;;;;5093493;28;20505;-83
2022/10/13 23:38:55;;;;;;;13.57;7.03;;;12.20;99.90;;;;;;5092604;28;20445;-87
2022/10/13 23:41:22;;;;;;;9.83;6.67;;;;;;;;;;5092468;28;20476;-90
2022/10/13 23:43:49;;;;;;;7.87;6.40;;;;;;;;;;5093640;28;20471;-82
2022/10/13 23:46:16;;;;;;;9.13;6.90;;;;;;;;;;5094144;28;20444;-83
2022/10/13 23:48:45;;;;;;;9.10;6.43;;;;;;;;;;5093969;28;20445;-91
2022/10/13 23:51:15;;;;;;;7.40;6.30;;;12.20;99.90;;;;;;5100938;28;20448;-86
2022/10/13 23:53:42;;;;;;;7.77;6.00;;;12.20;99.90;;;;;;5109032;28;20440;-92
2022/10/13 23:56:10;;;;;;;8.17;6.03;;;12.20;99.90;;;;;;5114738;28;20467;-91
2022/10/13 23:58:38;;;;;;;9.33;5.80;;;;;;;;;;5114346;28;20455;-92
